sensor_id;sensor_type;location;lat;lon;timestamp;P1;durP1;ratioP1;P2;durP2;ratioP2
12114;SDS011;6121;49.810;6.418;2023-03-01T00:00:40;181.82;;;81.13;;
12114;SDS011;6121;49.810;6.418;2023-03-01T00:03:06;180.30;;;78.13;;
12114;SDS011;6121;49.810;6.418;2023-03-01T00:05:32;167.57;;;75.57;;
12114;SDS011;6121;49.810;6.418;2023-03-01T00:07:58;177.68;;;81.35;;
12114;SDS011;6121;49.810;6.418;2023-03-01T00:10:24;171.80;;;81.50;;
12114;SDS011;6121;49.810;6.418;2023-03-01T00:12:50;163.88;;;82.68;;
12114;SDS011;6121;49.810;6.418;2023-03-01T00:15:16;189.60;;;86.07;;
12114;SDS011;6121;49.810;6.418;2023-03-01T00:17:42;158.77;;;86.88;;
12114;SDS011;6121;49.810;6.418;2023-03-01T00:20:08;180.75;;;88.88;;
12114;SDS011;6121;49.810;6.418;2023-03-01T00:22:35;176.83;;;88.10;;
12114;SDS011;6121;49.810;6.418;2023-03-01T00:25:02;182.48;;;89.03;;
12114;SDS011;6121;49.810;6.418;2023-03-01T00:27:28;159.40;;;84.00;;
12114;SDS011;6121;49.810;6.418;2023-03-01T00:29:54;155.68;;;85.97;;
12114;SDS011;6121;49.810;6.418;2023-03-01T00:32:20;188.07;;;86.53;;
12114;SDS011;6121;49.810;6.418;2023-03-01T00:34:46;161.87;;;84.53;;
12114;SDS011;6121;49.810;6.418;2023-03-01T00:37:22;209.70;;;95.25;;
12114;SDS011;6121;49.810;6.418;2023-03-01T00:39:50;155.82;;;88.18;;
12114;SDS011;6121;49.810;6.418;2023-03-01T00:42:16;186.27;;;94.72;;
12114;SDS011;6121;49.810;6.418;2023-03-01T00:44:42;157.85;;;89.57;;
12114;SDS011;6121;49.810;6.418;2023-03-01T00:47:09;168.57;;;85.15;;
12114;SDS011;6121;49.810;6.418;2023-03-01T00:49:35;154.80;;;86.70;;
12114;SDS011;6121;49.810;6.418;2023-03-01T00:52:00;171.95;;;89.28;;
12114;SDS011;6121;49.810;6.418;2023-03-01T00:54:27;179.65;;;94.63;;
12114;SDS011;6121;49.810;6.418;2023-03-01T00:56:52;166.07;;;94.77;;
12114;SDS011;6121;49.810;6.418;2023-03-01T00:59:18;183.23;;;99.10;;
12114;SDS011;6121;49.810;6.418;2023-03-01T01:01:44;198.03;;;99.53;;
12114;SDS011;6121;49.810;6.418;2023-03-01T01:04:11;191.30;;;103.55;;
12114;SDS011;6121;49.810;6.418;2023-03-01T01:06:47;211.70;;;131.70;;
12114;SDS011;6121;49.810;6.418;2023-03-01T01:09:14;214.20;;;143.50;;
12114;SDS011;6121;49.810;6.418;2023-03-01T01:11:45;252.40;;;152.82;;
12114;SDS011;6121;49.810;6.418;2023-03-01T01:14:13;225.95;;;156.38;;
12114;SDS011;6121;49.810;6.418;2023-03-01T01:16:39;227.95;;;160.63;;
12114;SDS011;6121;49.810;6.418;2023-03-01T01:19:05;262.75;;;170.63;;
12114;SDS011;6121;49.810;6.418;2023-03-01T01:21:32;302.48;;;172.07;;
12114;SDS011;6121;49.810;6.418;2023-03-01T01:23:58;237.48;;;168.45;;
12114;SDS011;6121;49.810;6.418;2023-03-01T01:26:28;273.58;;;179.98;;
12114;SDS011;6121;49.810;6.418;2023-03-01T01:28:57;234.82;;;182.30;;
12114;SDS011;6121;49.810;6.418;2023-03-01T01:31:23;359.35;;;210.00;;
12114;SDS011;6121;49.810;6.418;2023-03-01T01:33:50;277.13;;;198.73;;
12114;SDS011;6121;49.810;6.418;2023-03-01T01:36:17;321.63;;;214.13;;
12114;SDS011;6121;49.810;6.418;2023-03-01T01:38:43;286.30;;;211.48;;
12114;SDS011;6121;49.810;6.418;2023-03-01T01:41:09;409.55;;;244.27;;
12114;SDS011;6121;49.810;6.418;2023-03-01T01:43:38;306.83;;;223.15;;
12114;SDS011;6121;49.810;6.418;2023-03-01T01:48:55;469.95;;;267.90;;
12114;SDS011;6121;49.810;6.418;2023-03-01T01:51:30;584.17;;;292.83;;
12114;SDS011;6121;49.810;6.418;2023-03-01T01:54:08;483.97;;;252.53;;
12114;SDS011;6121;49.810;6.418;2023-03-01T01:56:39;500.77;;;277.17;;
12114;SDS011;6121;49.810;6.418;2023-03-01T01:59:08;504.05;;;277.27;;
12114;SDS011;6121;49.810;6.418;2023-03-01T02:01:35;562.40;;;285.83;;
12114;SDS011;6121;49.810;6.418;2023-03-01T02:04:00;499.60;;;270.02;;
12114;SDS011;6121;49.810;6.418;2023-03-01T02:06:31;528.87;;;286.50;;
12114;SDS011;6121;49.810;6.418;2023-03-01T02:09:08;487.77;;;250.90;;
12114;SDS011;6121;49.810;6.418;2023-03-01T02:11:39;546.05;;;236.23;;
12114;SDS011;6121;49.810;6.418;2023-03-01T02:14:05;493.57;;;258.50;;
12114;SDS011;6121;49.810;6.418;2023-03-01T02:16:31;493.45;;;254.15;;
12114;SDS011;6121;49.810;6.418;2023-03-01T02:18:58;467.92;;;216.48;;
12114;SDS011;6121;49.810;6.418;2023-03-01T02:24:32;498.30;;;243.82;;
12114;SDS011;6121;49.810;6.418;2023-03-01T02:27:11;503.25;;;269.33;;
12114;SDS011;6121;49.810;6.418;2023-03-01T02:29:38;473.67;;;263.80;;
12114;SDS011;6121;49.810;6.418;2023-03-01T02:32:03;518.63;;;244.97;;
12114;SDS011;6121;49.810;6.418;2023-03-01T02:34:31;466.60;;;216.55;;
12114;SDS011;6121;49.810;6.418;2023-03-01T02:37:02;496.65;;;257.15;;
12114;SDS011;6121;49.810;6.418;2023-03-01T02:39:46;486.83;;;253.18;;
12114;SDS011;6121;49.810;6.418;2023-03-01T02:42:15;527.10;;;284.30;;
12114;SDS011;6121;49.810;6.418;2023-03-01T02:44:46;495.45;;;272.10;;
12114;SDS011;6121;49.810;6.418;2023-03-01T02:47:14;487.30;;;239.13;;
12114;SDS011;6121;49.810;6.418;2023-03-01T02:49:40;469.35;;;241.90;;
12114;SDS011;6121;49.810;6.418;2023-03-01T02:55:11;475.98;;;240.50;;
12114;SDS011;6121;49.810;6.418;2023-03-01T02:57:40;503.90;;;270.93;;
12114;SDS011;6121;49.810;6.418;2023-03-01T03:00:15;358.02;;;205.80;;
12114;SDS011;6121;49.810;6.418;2023-03-01T03:02:46;480.73;;;215.73;;
12114;SDS011;6121;49.810;6.418;2023-03-01T03:05:17;476.50;;;222.80;;
12114;SDS011;6121;49.810;6.418;2023-03-01T03:07:47;454.90;;;234.13;;
12114;SDS011;6121;49.810;6.418;2023-03-01T03:10:15;471.83;;;208.73;;
12114;SDS011;6121;49.810;6.418;2023-03-01T03:12:54;476.98;;;225.75;;
12114;SDS011;6121;49.810;6.418;2023-03-01T03:15:24;497.48;;;245.38;;
12114;SDS011;6121;49.810;6.418;2023-03-01T03:17:51;499.43;;;269.70;;
12114;SDS011;6121;49.810;6.418;2023-03-01T03:20:20;489.67;;;244.25;;
12114;SDS011;6121;49.810;6.418;2023-03-01T03:22:48;465.65;;;245.05;;
12114;SDS011;6121;49.810;6.418;2023-03-01T03:25:16;525.60;;;257.73;;
12114;SDS011;6121;49.810;6.418;2023-03-01T03:27:43;510.65;;;261.08;;
12114;SDS011;6121;49.810;6.418;2023-03-01T03:30:12;516.10;;;230.50;;
12114;SDS011;6121;49.810;6.418;2023-03-01T03:32:43;462.63;;;245.70;;
12114;SDS011;6121;49.810;6.418;2023-03-01T03:35:21;502.30;;;222.43;;
12114;SDS011;6121;49.810;6.418;2023-03-01T03:37:50;471.35;;;222.95;;
12114;SDS011;6121;49.810;6.418;2023-03-01T03:42:59;474.13;;;233.77;;
12114;SDS011;6121;49.810;6.418;2023-03-01T03:45:25;494.55;;;261.88;;
12114;SDS011;6121;49.810;6.418;2023-03-01T03:47:51;500.20;;;226.35;;
12114;SDS011;6121;49.810;6.418;2023-03-01T03:50:17;509.35;;;238.68;;
12114;SDS011;6121;49.810;6.418;2023-03-01T03:52:44;481.75;;;256.30;;
12114;SDS011;6121;49.810;6.418;2023-03-01T03:55:11;541.42;;;266.38;;
12114;SDS011;6121;49.810;6.418;2023-03-01T03:57:38;490.40;;;239.63;;
12114;SDS011;6121;49.810;6.418;2023-03-01T04:00:06;474.63;;;234.15;;
12114;SDS011;6121;49.810;6.418;2023-03-01T04:02:41;476.87;;;243.80;;
12114;SDS011;6121;49.810;6.418;2023-03-01T04:05:08;474.80;;;245.57;;
12114;SDS011;6121;49.810;6.418;2023-03-01T04:07:35;510.25;;;258.02;;
12114;SDS011;6121;49.810;6.418;2023-03-01T04:10:03;482.00;;;261.45;;
12114;SDS011;6121;49.810;6.418;2023-03-01T04:12:31;545.33;;;279.75;;
12114;SDS011;6121;49.810;6.418;2023-03-01T04:15:03;367.20;;;182.45;;
12114;SDS011;6121;49.810;6.418;2023-03-01T04:17:38;517.20;;;260.02;;
12114;SDS011;6121;49.810;6.418;2023-03-01T04:20:07;477.55;;;264.42;;
12114;SDS011;6121;49.810;6.418;2023-03-01T04:22:36;520.35;;;276.92;;
12114;SDS011;6121;49.810;6.418;2023-03-01T04:25:03;504.50;;;267.15;;
12114;SDS011;6121;49.810;6.418;2023-03-01T04:27:34;543.45;;;276.80;;
12114;SDS011;6121;49.810;6.418;2023-03-01T04:30:01;492.70;;;260.08;;
12114;SDS011;6121;49.810;6.418;2023-03-01T04:32:29;146.82;;;21.52;;
12114;SDS011;6121;49.810;6.418;2023-03-01T04:34:54;139.10;;;20.80;;
12114;SDS011;6121;49.810;6.418;2023-03-01T04:37:20;166.38;;;24.38;;
12114;SDS011;6121;49.810;6.418;2023-03-01T04:39:46;129.13;;;19.57;;
12114;SDS011;6121;49.810;6.418;2023-03-01T04:42:16;146.32;;;21.35;;
12114;SDS011;6121;49.810;6.418;2023-03-01T04:44:44;137.05;;;20.17;;
12114;SDS011;6121;49.810;6.418;2023-03-01T04:47:11;142.50;;;21.27;;
12114;SDS011;6121;49.810;6.418;2023-03-01T04:49:37;133.57;;;20.08;;
12114;SDS011;6121;49.810;6.418;2023-03-01T04:52:04;145.65;;;21.60;;
12114;SDS011;6121;49.810;6.418;2023-03-01T04:54:31;159.77;;;23.90;;
12114;SDS011;6121;49.810;6.418;2023-03-01T04:56:58;151.68;;;23.73;;
12114;SDS011;6121;49.810;6.418;2023-03-01T04:59:25;179.27;;;28.02;;
12114;SDS011;6121;49.810;6.418;2023-03-01T05:01:51;171.88;;;27.63;;
12114;SDS011;6121;49.810;6.418;2023-03-01T05:04:21;195.25;;;32.63;;
12114;SDS011;6121;49.810;6.418;2023-03-01T05:06:47;149.82;;;24.92;;
12114;SDS011;6121;49.810;6.418;2023-03-01T05:09:13;169.43;;;28.07;;
12114;SDS011;6121;49.810;6.418;2023-03-01T05:11:39;199.52;;;32.85;;
12114;SDS011;6121;49.810;6.418;2023-03-01T05:14:07;171.70;;;28.60;;
12114;SDS011;6121;49.810;6.418;2023-03-01T05:16:34;215.98;;;35.33;;
12114;SDS011;6121;49.810;6.418;2023-03-01T05:19:01;126.25;;;28.42;;
12114;SDS011;6121;49.810;6.418;2023-03-01T05:21:39;251.60;;;53.40;;
12114;SDS011;6121;49.810;6.418;2023-03-01T05:24:25;192.15;;;48.83;;
12114;SDS011;6121;49.810;6.418;2023-03-01T05:26:52;173.03;;;48.37;;
12114;SDS011;6121;49.810;6.418;2023-03-01T05:29:19;177.90;;;69.83;;
12114;SDS011;6121;49.810;6.418;2023-03-01T05:31:51;267.95;;;134.18;;
12114;SDS011;6121;49.810;6.418;2023-03-01T05:34:31;295.83;;;195.98;;
12114;SDS011;6121;49.810;6.418;2023-03-01T05:36:59;322.10;;;220.18;;
12114;SDS011;6121;49.810;6.418;2023-03-01T05:39:26;361.50;;;248.23;;
12114;SDS011;6121;49.810;6.418;2023-03-01T05:41:53;195.52;;;35.22;;
12114;SDS011;6121;49.810;6.418;2023-03-01T05:44:20;177.38;;;66.35;;
12114;SDS011;6121;49.810;6.418;2023-03-01T05:46:47;265.20;;;171.57;;
12114;SDS011;6121;49.810;6.418;2023-03-01T05:49:14;271.58;;;192.55;;
12114;SDS011;6121;49.810;6.418;2023-03-01T05:51:40;419.08;;;252.40;;
12114;SDS011;6121;49.810;6.418;2023-03-01T05:54:08;181.80;;;64.68;;
12114;SDS011;6121;49.810;6.418;2023-03-01T05:56:34;192.18;;;88.57;;
12114;SDS011;6121;49.810;6.418;2023-03-01T05:59:02;163.48;;;78.90;;
12114;SDS011;6121;49.810;6.418;2023-03-01T06:01:30;247.73;;;83.30;;
12114;SDS011;6121;49.810;6.418;2023-03-01T06:03:57;178.27;;;74.43;;
12114;SDS011;6121;49.810;6.418;2023-03-01T06:06:23;158.05;;;78.88;;
12114;SDS011;6121;49.810;6.418;2023-03-01T06:08:49;153.65;;;72.95;;
12114;SDS011;6121;49.810;6.418;2023-03-01T06:11:15;137.23;;;77.00;;
12114;SDS011;6121;49.810;6.418;2023-03-01T06:13:44;155.88;;;86.75;;
12114;SDS011;6121;49.810;6.418;2023-03-01T06:16:11;141.23;;;78.43;;
12114;SDS011;6121;49.810;6.418;2023-03-01T06:18:38;156.68;;;76.22;;
12114;SDS011;6121;49.810;6.418;2023-03-01T06:21:04;132.37;;;67.23;;
12114;SDS011;6121;49.810;6.418;2023-03-01T06:23:31;127.10;;;40.33;;
12114;SDS011;6121;49.810;6.418;2023-03-01T06:25:57;110.27;;;43.60;;
12114;SDS011;6121;49.810;6.418;2023-03-01T06:28:23;156.20;;;49.67;;
12114;SDS011;6121;49.810;6.418;2023-03-01T06:30:49;129.07;;;44.60;;
12114;SDS011;6121;49.810;6.418;2023-03-01T06:33:16;121.95;;;43.03;;
12114;SDS011;6121;49.810;6.418;2023-03-01T06:35:45;124.90;;;45.92;;
12114;SDS011;6121;49.810;6.418;2023-03-01T06:38:12;106.88;;;43.22;;
12114;SDS011;6121;49.810;6.418;2023-03-01T06:40:40;139.95;;;43.50;;
12114;SDS011;6121;49.810;6.418;2023-03-01T06:43:06;86.15;;;34.38;;
12114;SDS011;6121;49.810;6.418;2023-03-01T06:45:33;122.20;;;40.63;;
12114;SDS011;6121;49.810;6.418;2023-03-01T06:48:05;87.27;;;38.37;;
12114;SDS011;6121;49.810;6.418;2023-03-01T06:50:33;113.47;;;41.83;;
12114;SDS011;6121;49.810;6.418;2023-03-01T06:53:00;98.57;;;41.28;;
12114;SDS011;6121;49.810;6.418;2023-03-01T06:55:25;111.22;;;42.03;;
12114;SDS011;6121;49.810;6.418;2023-03-01T06:57:55;108.27;;;40.70;;
12114;SDS011;6121;49.810;6.418;2023-03-01T07:00:22;118.07;;;43.95;;
12114;SDS011;6121;49.810;6.418;2023-03-01T07:02:49;113.70;;;51.65;;
12114;SDS011;6121;49.810;6.418;2023-03-01T07:05:16;98.35;;;40.30;;
12114;SDS011;6121;49.810;6.418;2023-03-01T07:07:41;110.18;;;47.42;;
12114;SDS011;6121;49.810;6.418;2023-03-01T07:10:07;116.37;;;42.27;;
12114;SDS011;6121;49.810;6.418;2023-03-01T07:12:34;115.18;;;45.72;;
12114;SDS011;6121;49.810;6.418;2023-03-01T07:15:00;98.70;;;47.80;;
12114;SDS011;6121;49.810;6.418;2023-03-01T07:17:26;120.40;;;46.72;;
12114;SDS011;6121;49.810;6.418;2023-03-01T07:19:52;105.63;;;43.38;;
12114;SDS011;6121;49.810;6.418;2023-03-01T07:22:18;113.72;;;44.75;;
12114;SDS011;6121;49.810;6.418;2023-03-01T07:24:44;134.53;;;43.93;;
12114;SDS011;6121;49.810;6.418;2023-03-01T07:27:09;84.03;;;45.88;;
12114;SDS011;6121;49.810;6.418;2023-03-01T07:29:35;119.22;;;52.95;;
12114;SDS011;6121;49.810;6.418;2023-03-01T07:32:02;105.17;;;55.60;;
12114;SDS011;6121;49.810;6.418;2023-03-01T07:34:28;133.35;;;66.72;;
12114;SDS011;6121;49.810;6.418;2023-03-01T07:36:54;90.78;;;62.08;;
12114;SDS011;6121;49.810;6.418;2023-03-01T07:39:20;107.60;;;58.80;;
12114;SDS011;6121;49.810;6.418;2023-03-01T07:41:48;152.50;;;59.03;;
12114;SDS011;6121;49.810;6.418;2023-03-01T07:44:19;101.10;;;63.40;;
12114;SDS011;6121;49.810;6.418;2023-03-01T07:46:45;122.80;;;51.90;;
12114;SDS011;6121;49.810;6.418;2023-03-01T07:49:11;107.18;;;73.97;;
12114;SDS011;6121;49.810;6.418;2023-03-01T07:51:37;151.80;;;83.07;;
12114;SDS011;6121;49.810;6.418;2023-03-01T07:54:04;115.40;;;84.43;;
12114;SDS011;6121;49.810;6.418;2023-03-01T07:56:29;143.38;;;93.50;;
12114;SDS011;6121;49.810;6.418;2023-03-01T07:58:55;136.50;;;96.65;;
12114;SDS011;6121;49.810;6.418;2023-03-01T08:01:21;135.70;;;104.85;;
12114;SDS011;6121;49.810;6.418;2023-03-01T08:03:47;124.82;;;101.07;;
12114;SDS011;6121;49.810;6.418;2023-03-01T08:06:14;160.05;;;106.07;;
12114;SDS011;6121;49.810;6.418;2023-03-01T08:08:41;140.30;;;101.10;;
12114;SDS011;6121;49.810;6.418;2023-03-01T08:11:09;159.93;;;116.80;;
12114;SDS011;6121;49.810;6.418;2023-03-01T08:13:37;147.32;;;122.13;;
12114;SDS011;6121;49.810;6.418;2023-03-01T08:16:06;144.15;;;129.00;;
12114;SDS011;6121;49.810;6.418;2023-03-01T08:18:35;148.10;;;132.05;;
12114;SDS011;6121;49.810;6.418;2023-03-01T08:21:01;169.73;;;152.23;;
12114;SDS011;6121;49.810;6.418;2023-03-01T08:23:32;186.00;;;168.10;;
12114;SDS011;6121;49.810;6.418;2023-03-01T08:26:05;214.23;;;192.10;;
12114;SDS011;6121;49.810;6.418;2023-03-01T08:28:37;209.90;;;186.57;;
12114;SDS011;6121;49.810;6.418;2023-03-01T08:31:12;199.27;;;181.60;;
12114;SDS011;6121;49.810;6.418;2023-03-01T08:33:43;205.68;;;185.65;;
12114;SDS011;6121;49.810;6.418;2023-03-01T08:36:10;215.25;;;194.32;;
12114;SDS011;6121;49.810;6.418;2023-03-01T08:38:36;246.23;;;223.02;;
12114;SDS011;6121;49.810;6.418;2023-03-01T08:41:02;233.68;;;212.85;;
12114;SDS011;6121;49.810;6.418;2023-03-01T08:43:28;181.73;;;165.20;;
12114;SDS011;6121;49.810;6.418;2023-03-01T08:45:55;178.52;;;159.68;;
12114;SDS011;6121;49.810;6.418;2023-03-01T08:48:21;165.20;;;150.18;;
12114;SDS011;6121;49.810;6.418;2023-03-01T08:50:46;189.30;;;161.07;;
12114;SDS011;6121;49.810;6.418;2023-03-01T08:53:12;159.90;;;143.75;;
12114;SDS011;6121;49.810;6.418;2023-03-01T08:55:38;182.63;;;164.98;;
12114;SDS011;6121;49.810;6.418;2023-03-01T08:58:04;158.70;;;144.93;;
12114;SDS011;6121;49.810;6.418;2023-03-01T09:00:30;168.82;;;153.35;;
12114;SDS011;6121;49.810;6.418;2023-03-01T09:02:56;177.13;;;162.35;;
12114;SDS011;6121;49.810;6.418;2023-03-01T09:05:22;197.33;;;181.23;;
12114;SDS011;6121;49.810;6.418;2023-03-01T09:07:48;209.18;;;192.07;;
12114;SDS011;6121;49.810;6.418;2023-03-01T09:10:14;192.40;;;177.30;;
12114;SDS011;6121;49.810;6.418;2023-03-01T09:12:39;210.13;;;192.43;;
12114;SDS011;6121;49.810;6.418;2023-03-01T09:15:07;236.53;;;217.00;;
12114;SDS011;6121;49.810;6.418;2023-03-01T09:17:33;226.07;;;207.77;;
12114;SDS011;6121;49.810;6.418;2023-03-01T09:19:59;219.80;;;203.43;;
12114;SDS011;6121;49.810;6.418;2023-03-01T09:22:25;221.40;;;202.93;;
12114;SDS011;6121;49.810;6.418;2023-03-01T09:24:51;255.20;;;235.25;;
12114;SDS011;6121;49.810;6.418;2023-03-01T09:27:17;239.57;;;222.17;;
12114;SDS011;6121;49.810;6.418;2023-03-01T09:29:44;241.15;;;224.38;;
12114;SDS011;6121;49.810;6.418;2023-03-01T09:32:10;252.73;;;235.83;;
12114;SDS011;6121;49.810;6.418;2023-03-01T09:34:36;272.58;;;252.80;;
12114;SDS011;6121;49.810;6.418;2023-03-01T09:37:20;294.92;;;276.38;;
12114;SDS011;6121;49.810;6.418;2023-03-01T09:39:46;291.87;;;272.77;;
12114;SDS011;6121;49.810;6.418;2023-03-01T09:42:12;297.55;;;278.23;;
12114;SDS011;6121;49.810;6.418;2023-03-01T09:47:30;301.10;;;282.08;;
12114;SDS011;6121;49.810;6.418;2023-03-01T09:52:30;328.42;;;306.63;;
12114;SDS011;6121;49.810;6.418;2023-03-01T09:55:20;276.23;;;255.40;;
12114;SDS011;6121;49.810;6.418;2023-03-01T09:58:00;360.92;;;336.63;;
12114;SDS011;6121;49.810;6.418;2023-03-01T10:00:44;185.93;;;167.48;;
12114;SDS011;6121;49.810;6.418;2023-03-01T10:03:27;169.57;;;154.32;;
12114;SDS011;6121;49.810;6.418;2023-03-01T10:08:46;187.60;;;168.07;;
12114;SDS011;6121;49.810;6.418;2023-03-01T10:11:22;200.40;;;177.20;;
12114;SDS011;6121;49.810;6.418;2023-03-01T10:14:06;175.68;;;160.25;;
12114;SDS011;6121;49.810;6.418;2023-03-01T10:16:53;264.30;;;242.27;;
12114;SDS011;6121;49.810;6.418;2023-03-01T10:19:29;213.77;;;198.57;;
12114;SDS011;6121;49.810;6.418;2023-03-01T10:21:57;249.37;;;225.43;;
12114;SDS011;6121;49.810;6.418;2023-03-01T10:24:35;170.48;;;154.90;;
12114;SDS011;6121;49.810;6.418;2023-03-01T10:27:04;207.18;;;186.40;;
12114;SDS011;6121;49.810;6.418;2023-03-01T10:32:38;472.83;;;435.58;;
12114;SDS011;6121;49.810;6.418;2023-03-01T10:38:04;571.95;;;528.47;;
12114;SDS011;6121;49.810;6.418;2023-03-01T10:40:35;450.65;;;417.05;;
12114;SDS011;6121;49.810;6.418;2023-03-01T10:43:14;407.77;;;375.65;;
12114;SDS011;6121;49.810;6.418;2023-03-01T10:45:40;359.75;;;330.73;;
12114;SDS011;6121;49.810;6.418;2023-03-01T10:48:11;441.50;;;411.45;;
12114;SDS011;6121;49.810;6.418;2023-03-01T10:50:50;433.30;;;398.05;;
12114;SDS011;6121;49.810;6.418;2023-03-01T10:53:48;371.55;;;342.67;;
12114;SDS011;6121;49.810;6.418;2023-03-01T10:56:14;439.20;;;405.95;;
12114;SDS011;6121;49.810;6.418;2023-03-01T10:59:03;440.00;;;406.85;;
12114;SDS011;6121;49.810;6.418;2023-03-01T11:01:45;490.60;;;451.63;;
12114;SDS011;6121;49.810;6.418;2023-03-01T11:04:25;493.67;;;456.00;;
12114;SDS011;6121;49.810;6.418;2023-03-01T11:06:57;512.65;;;472.33;;
12114;SDS011;6121;49.810;6.418;2023-03-01T11:09:24;519.95;;;479.00;;
12114;SDS011;6121;49.810;6.418;2023-03-01T11:11:53;520.17;;;483.27;;
12114;SDS011;6121;49.810;6.418;2023-03-01T11:14:21;545.00;;;505.90;;
12114;SDS011;6121;49.810;6.418;2023-03-01T11:16:57;504.75;;;457.85;;
12114;SDS011;6121;49.810;6.418;2023-03-01T11:19:48;454.97;;;416.73;;
12114;SDS011;6121;49.810;6.418;2023-03-01T11:25:20;453.00;;;416.77;;
12114;SDS011;6121;49.810;6.418;2023-03-01T11:27:51;512.40;;;472.00;;
12114;SDS011;6121;49.810;6.418;2023-03-01T11:30:23;556.10;;;514.67;;
12114;SDS011;6121;49.810;6.418;2023-03-01T11:32:56;558.47;;;509.27;;
12114;SDS011;6121;49.810;6.418;2023-03-01T11:35:28;518.35;;;478.15;;
12114;SDS011;6121;49.810;6.418;2023-03-01T11:40:25;530.55;;;490.38;;
12114;SDS011;6121;49.810;6.418;2023-03-01T11:43:04;567.33;;;525.55;;
12114;SDS011;6121;49.810;6.418;2023-03-01T11:51:13;485.05;;;448.38;;
12114;SDS011;6121;49.810;6.418;2023-03-01T11:56:42;605.78;;;555.88;;
12114;SDS011;6121;49.810;6.418;2023-03-01T11:59:26;546.35;;;510.13;;
12114;SDS011;6121;49.810;6.418;2023-03-01T12:19:33;327.50;;;301.25;;
12114;SDS011;6121;49.810;6.418;2023-03-01T12:22:16;250.93;;;225.02;;
12114;SDS011;6121;49.810;6.418;2023-03-01T12:27:50;196.77;;;163.30;;
12114;SDS011;6121;49.810;6.418;2023-03-01T12:44:22;222.35;;;152.48;;
12114;SDS011;6121;49.810;6.418;2023-03-01T12:50:38;207.88;;;146.55;;
12114;SDS011;6121;49.810;6.418;2023-03-01T12:53:21;182.93;;;157.30;;
12114;SDS011;6121;49.810;6.418;2023-03-01T12:55:50;221.20;;;140.53;;
12114;SDS011;6121;49.810;6.418;2023-03-01T13:06:02;203.32;;;96.25;;
12114;SDS011;6121;49.810;6.418;2023-03-01T13:08:39;203.80;;;91.10;;
12114;SDS011;6121;49.810;6.418;2023-03-01T13:11:17;165.57;;;87.23;;
12114;SDS011;6121;49.810;6.418;2023-03-01T13:13:47;237.43;;;92.72;;
12114;SDS011;6121;49.810;6.418;2023-03-01T13:21:45;156.70;;;69.20;;
12114;SDS011;6121;49.810;6.418;2023-03-01T13:29:52;131.52;;;64.80;;
12114;SDS011;6121;49.810;6.418;2023-03-01T13:32:35;168.85;;;62.30;;
12114;SDS011;6121;49.810;6.418;2023-03-01T13:37:40;181.93;;;72.50;;
12114;SDS011;6121;49.810;6.418;2023-03-01T13:42:47;193.93;;;71.13;;
12114;SDS011;6121;49.810;6.418;2023-03-01T13:45:39;173.95;;;72.55;;
12114;SDS011;6121;49.810;6.418;2023-03-01T13:48:15;190.63;;;74.20;;
12114;SDS011;6121;49.810;6.418;2023-03-01T13:50:49;178.95;;;79.95;;
12114;SDS011;6121;49.810;6.418;2023-03-01T13:53:18;160.90;;;80.47;;
12114;SDS011;6121;49.810;6.418;2023-03-01T13:55:51;196.93;;;80.15;;
12114;SDS011;6121;49.810;6.418;2023-03-01T13:58:28;173.27;;;75.88;;
12114;SDS011;6121;49.810;6.418;2023-03-01T14:03:26;173.32;;;73.80;;
12114;SDS011;6121;49.810;6.418;2023-03-01T14:06:09;198.23;;;77.78;;
12114;SDS011;6121;49.810;6.418;2023-03-01T14:08:40;173.32;;;76.95;;
12114;SDS011;6121;49.810;6.418;2023-03-01T14:19:08;165.77;;;76.38;;
12114;SDS011;6121;49.810;6.418;2023-03-01T14:21:58;170.93;;;67.35;;
12114;SDS011;6121;49.810;6.418;2023-03-01T14:24:50;198.93;;;74.15;;
12114;SDS011;6121;49.810;6.418;2023-03-01T14:27:19;157.90;;;64.78;;
12114;SDS011;6121;49.810;6.418;2023-03-01T14:29:53;156.82;;;67.05;;
12114;SDS011;6121;49.810;6.418;2023-03-01T14:32:28;181.33;;;77.40;;
12114;SDS011;6121;49.810;6.418;2023-03-01T14:34:55;194.10;;;78.93;;
12114;SDS011;6121;49.810;6.418;2023-03-01T14:37:29;144.38;;;77.88;;
12114;SDS011;6121;49.810;6.418;2023-03-01T14:40:02;215.75;;;93.28;;
12114;SDS011;6121;49.810;6.418;2023-03-01T14:42:31;159.45;;;80.60;;
12114;SDS011;6121;49.810;6.418;2023-03-01T14:45:01;181.43;;;89.43;;
12114;SDS011;6121;49.810;6.418;2023-03-01T14:47:33;154.75;;;84.35;;
12114;SDS011;6121;49.810;6.418;2023-03-01T14:50:02;209.10;;;81.30;;
12114;SDS011;6121;49.810;6.418;2023-03-01T14:52:36;161.63;;;75.90;;
12114;SDS011;6121;49.810;6.418;2023-03-01T14:55:05;195.70;;;81.60;;
12114;SDS011;6121;49.810;6.418;2023-03-01T14:57:43;152.48;;;76.28;;
12114;SDS011;6121;49.810;6.418;2023-03-01T15:00:16;174.27;;;76.75;;
12114;SDS011;6121;49.810;6.418;2023-03-01T15:02:48;171.73;;;84.63;;
12114;SDS011;6121;49.810;6.418;2023-03-01T15:05:15;178.25;;;88.30;;
12114;SDS011;6121;49.810;6.418;2023-03-01T15:07:48;165.45;;;84.63;;
12114;SDS011;6121;49.810;6.418;2023-03-01T15:10:20;186.88;;;83.80;;
12114;SDS011;6121;49.810;6.418;2023-03-01T15:12:49;174.32;;;79.88;;
12114;SDS011;6121;49.810;6.418;2023-03-01T15:18:25;172.37;;;88.30;;
12114;SDS011;6121;49.810;6.418;2023-03-01T15:20:53;211.82;;;97.68;;
12114;SDS011;6121;49.810;6.418;2023-03-01T15:23:22;218.20;;;102.37;;
12114;SDS011;6121;49.810;6.418;2023-03-01T15:25:53;177.50;;;95.33;;
12114;SDS011;6121;49.810;6.418;2023-03-01T15:28:37;201.55;;;98.13;;
12114;SDS011;6121;49.810;6.418;2023-03-01T15:31:24;194.98;;;94.05;;
12114;SDS011;6121;49.810;6.418;2023-03-01T15:33:50;172.00;;;88.80;;
12114;SDS011;6121;49.810;6.418;2023-03-01T15:38:58;165.00;;;81.00;;
12114;SDS011;6121;49.810;6.418;2023-03-01T15:41:29;196.05;;;89.88;;
12114;SDS011;6121;49.810;6.418;2023-03-01T15:43:57;157.98;;;86.05;;
12114;SDS011;6121;49.810;6.418;2023-03-01T15:48:58;185.07;;;82.50;;
12114;SDS011;6121;49.810;6.418;2023-03-01T15:51:34;158.90;;;80.57;;
12114;SDS011;6121;49.810;6.418;2023-03-01T15:54:15;169.68;;;83.97;;
12114;SDS011;6121;49.810;6.418;2023-03-01T15:56:44;160.97;;;76.97;;
12114;SDS011;6121;49.810;6.418;2023-03-01T15:59:10;158.65;;;82.57;;
12114;SDS011;6121;49.810;6.418;2023-03-01T16:01:38;167.25;;;87.57;;
12114;SDS011;6121;49.810;6.418;2023-03-01T16:04:05;179.40;;;89.07;;
12114;SDS011;6121;49.810;6.418;2023-03-01T16:06:31;164.85;;;89.00;;
12114;SDS011;6121;49.810;6.418;2023-03-01T16:08:57;202.73;;;86.73;;
12114;SDS011;6121;49.810;6.418;2023-03-01T16:11:22;156.82;;;79.88;;
12114;SDS011;6121;49.810;6.418;2023-03-01T16:13:48;163.65;;;83.35;;
12114;SDS011;6121;49.810;6.418;2023-03-01T16:16:15;162.52;;;83.22;;
12114;SDS011;6121;49.810;6.418;2023-03-01T16:18:42;188.77;;;93.20;;
12114;SDS011;6121;49.810;6.418;2023-03-01T16:21:20;251.50;;;96.50;;
12114;SDS011;6121;49.810;6.418;2023-03-01T16:23:50;161.77;;;86.95;;
12114;SDS011;6121;49.810;6.418;2023-03-01T16:26:17;169.48;;;89.05;;
12114;SDS011;6121;49.810;6.418;2023-03-01T16:28:44;169.82;;;85.38;;
12114;SDS011;6121;49.810;6.418;2023-03-01T16:31:11;197.73;;;90.57;;